createdAt,value
2022-12-08T00:01:59.324Z,97880.97
2022-12-08T00:05:19.893Z,97870.63
2022-12-08T00:08:40.074Z,97874.16
2022-12-08T00:11:41.535Z,97870.69
2022-12-08T00:14:45.762Z,97866.41
2022-12-08T00:17:47.157Z,97860.44
2022-12-08T00:20:54.342Z,97856.19
2022-12-08T00:23:56.269Z,97857.97
2022-12-08T00:26:57.663Z,97854.38
2022-12-08T00:29:59.070Z,97855.97
2022-12-08T00:33:00.507Z,97845.69
2022-12-08T00:36:12.029Z,97845.50
2022-12-08T00:39:13.537Z,97839.50
2022-12-08T00:42:15.408Z,97835.28
2022-12-08T00:45:16.810Z,97831.00
2022-12-08T00:48:18.220Z,97835.19
2022-12-08T00:51:19.639Z,97831.03
2022-12-08T00:54:21.139Z,97823.25
2022-12-08T00:57:22.532Z,97823.88
2022-12-08T01:00:23.920Z,97819.50
2022-12-08T01:03:25.582Z,97823.88
2022-12-08T01:06:27.133Z,97813.53
2022-12-08T01:09:28.570Z,97813.38
2022-12-08T01:12:31.065Z,97815.03
2022-12-08T01:15:32.473Z,97812.53
2022-12-08T01:18:33.863Z,97818.44
2022-12-08T01:21:35.280Z,97824.31
2022-12-08T01:24:36.684Z,97829.41
2022-12-08T01:27:38.130Z,97828.47
2022-12-08T01:30:39.824Z,97823.25
2022-12-08T01:33:41.480Z,97826.69
2022-12-08T01:36:44.444Z,97830.22
2022-12-08T01:39:45.865Z,97828.50
2022-12-08T01:42:47.247Z,97828.59
2022-12-08T01:45:48.735Z,97818.41
2022-12-08T01:48:50.663Z,97830.41
2022-12-08T01:51:52.044Z,97825.19
2022-12-08T01:54:57.969Z,97815.53
2022-12-08T01:58:00.949Z,97815.41
2022-12-08T02:01:02.450Z,97823.03
2022-12-08T02:04:04.963Z,97817.34
2022-12-08T02:07:08.315Z,97812.19
2022-12-08T02:10:10.323Z,97813.91
2022-12-08T02:13:13.229Z,97807.16
2022-12-08T02:16:20.891Z,97802.91
2022-12-08T02:19:34.811Z,97805.47
2022-12-08T02:22:39.951Z,97797.75
2022-12-08T02:25:41.340Z,97803.88
2022-12-08T02:28:48.856Z,97804.75
2022-12-08T02:31:50.235Z,97795.38
2022-12-08T02:34:58.741Z,97791.97
2022-12-08T02:38:05.064Z,97794.47
2022-12-08T02:41:17.115Z,97785.81
2022-12-08T02:44:22.766Z,97779.78
2022-12-08T02:47:24.292Z,97772.97
2022-12-08T02:50:25.982Z,97772.13
2022-12-08T02:53:28.151Z,97769.41
2022-12-08T02:56:35.572Z,97766.97
2022-12-08T02:59:50.755Z,97764.34
2022-12-08T03:03:11.278Z,97760.13
2022-12-08T03:06:18.832Z,97763.47
2022-12-08T03:09:39.024Z,97752.44
2022-12-08T03:12:44.488Z,97749.09
2022-12-08T03:15:46.799Z,97752.66
2022-12-08T03:18:48.885Z,97748.34
2022-12-08T03:21:51.058Z,97755.94
2022-12-08T03:24:52.521Z,97749.00
2022-12-08T03:27:53.949Z,97749.00
2022-12-08T03:30:55.856Z,97745.41
2022-12-08T03:33:57.309Z,97744.50
2022-12-08T03:37:00.240Z,97742.81
2022-12-08T03:40:02.272Z,97736.00
2022-12-08T03:43:03.959Z,97736.00
2022-12-08T03:46:05.500Z,97734.34
2022-12-08T03:49:06.964Z,97722.56
2022-12-08T03:52:10.216Z,97716.50
2022-12-08T03:55:11.673Z,97712.13
2022-12-08T03:58:13.085Z,97716.16
2022-12-08T04:01:14.540Z,97704.09
2022-12-08T04:04:15.932Z,97695.59
2022-12-08T04:07:17.303Z,97689.59
2022-12-08T04:10:18.699Z,97690.44
2022-12-08T04:13:20.118Z,97695.69
2022-12-08T04:16:24.940Z,97691.50
2022-12-08T04:19:26.479Z,97696.69
2022-12-08T04:22:28.065Z,97691.59
2022-12-08T04:25:29.724Z,97688.22
2022-12-08T04:28:31.284Z,97688.22
2022-12-08T04:31:32.798Z,97685.69
2022-12-08T04:34:34.276Z,97688.16
2022-12-08T04:37:35.695Z,97685.47
2022-12-08T04:40:37.112Z,97676.09
2022-12-08T04:43:38.532Z,97679.63
2022-12-08T04:46:43.421Z,97676.19
2022-12-08T04:49:45.225Z,97682.16
2022-12-08T04:52:46.677Z,97682.16
2022-12-08T04:55:49.640Z,97683.13
2022-12-08T04:58:51.039Z,97679.72
2022-12-08T05:01:52.579Z,97677.13
2022-12-08T05:04:54.087Z,97666.00
2022-12-08T05:07:55.556Z,97672.09
2022-12-08T05:11:03.859Z,97678.16
2022-12-08T05:14:05.271Z,97671.25
2022-12-08T05:17:09.763Z,97667.88
2022-12-08T05:20:11.599Z,97668.81
2022-12-08T05:23:13.017Z,97663.78
2022-12-08T05:26:14.421Z,97668.00
2022-12-08T05:29:15.773Z,97664.59
2022-12-08T05:32:17.169Z,97659.44
2022-12-08T05:35:18.622Z,97668.94
2022-12-08T05:38:20.593Z,97669.06
2022-12-08T05:41:22.063Z,97669.88
2022-12-08T05:44:23.570Z,97664.75
2022-12-08T05:47:25.033Z,97657.88
2022-12-08T05:50:26.432Z,97660.50
2022-12-08T05:53:27.858Z,97657.13
2022-12-08T05:56:29.313Z,97652.84
2022-12-08T05:59:30.777Z,97649.44
2022-12-08T06:02:32.338Z,97646.88
2022-12-08T06:05:34.329Z,97651.09
2022-12-08T06:08:35.752Z,97646.88
2022-12-08T06:11:37.162Z,97649.53
2022-12-08T06:14:39.111Z,97650.38
2022-12-08T06:17:40.557Z,97652.97
2022-12-08T06:20:41.945Z,97659.00
2022-12-08T06:23:43.387Z,97660.75
2022-12-08T06:26:44.867Z,97660.69
2022-12-08T06:29:46.259Z,97651.97
2022-12-08T06:32:47.662Z,97648.53
2022-12-08T06:35:49.038Z,97659.63
2022-12-08T06:38:50.404Z,97663.81
2022-12-08T06:42:10.630Z,97648.47
2022-12-08T06:45:12.440Z,97657.03
2022-12-08T06:48:13.867Z,97648.56
2022-12-08T06:51:16.007Z,97645.13
2022-12-08T06:54:17.376Z,97658.84
2022-12-08T06:57:18.918Z,97654.56
2022-12-08T07:00:20.365Z,97641.81
2022-12-08T07:03:21.759Z,97646.03
2022-12-08T07:06:23.629Z,97653.03
2022-12-08T07:09:25.014Z,97657.25
2022-12-08T07:12:26.410Z,97649.53
2022-12-08T07:15:27.774Z,97658.97
2022-12-08T07:18:29.166Z,97650.47
2022-12-08T07:21:30.546Z,97659.91
2022-12-08T07:24:31.889Z,97661.75
2022-12-08T07:27:33.342Z,97659.06
2022-12-08T07:30:34.747Z,97662.56
2022-12-08T07:33:36.259Z,97664.25
2022-12-08T07:36:37.659Z,97660.75
2022-12-08T07:39:38.996Z,97659.09
2022-12-08T07:42:40.381Z,97660.91
2022-12-08T07:45:41.764Z,97660.16
2022-12-08T07:48:43.216Z,97659.31
2022-12-08T07:51:44.562Z,97658.44
2022-12-08T07:54:45.906Z,97655.97
2022-12-08T07:57:47.286Z,97665.22
2022-12-08T08:00:48.670Z,97657.50
2022-12-08T08:03:50.158Z,97659.28
2022-12-08T08:06:51.494Z,97656.66
2022-12-08T08:09:52.891Z,97654.09
2022-12-08T08:12:54.264Z,97657.50
2022-12-08T08:15:55.760Z,97657.59
2022-12-08T08:18:57.215Z,97654.16
2022-12-08T08:21:58.603Z,97654.16
2022-12-08T08:24:59.948Z,97655.09
2022-12-08T08:28:01.418Z,97654.31
2022-12-08T08:31:02.891Z,97648.41
2022-12-08T08:34:06.396Z,97648.44
2022-12-08T08:37:08.141Z,97645.16
2022-12-08T08:40:09.674Z,97643.28
2022-12-08T08:43:31.561Z,97639.25
2022-12-08T08:46:37.821Z,97638.53
2022-12-08T08:49:39.289Z,97631.72
2022-12-08T08:52:40.705Z,97628.44
2022-12-08T08:55:42.063Z,97627.56
2022-12-08T08:58:43.409Z,97629.31
2022-12-08T09:01:44.895Z,97621.78
2022-12-08T09:04:46.452Z,97617.66
2022-12-08T09:07:47.939Z,97613.28
2022-12-08T09:10:49.387Z,97610.72
2022-12-08T09:13:51.113Z,97616.72
2022-12-08T09:16:52.483Z,97621.03
2022-12-08T09:19:53.828Z,97617.75
2022-12-08T09:22:55.228Z,97625.44
2022-12-08T09:25:56.586Z,97620.44
2022-12-08T09:28:58.036Z,97618.94
2022-12-08T09:31:59.518Z,97620.75
2022-12-08T09:35:01.534Z,97617.44
2022-12-08T09:38:02.969Z,97622.72
2022-12-08T09:41:04.778Z,97613.41
2022-12-08T09:44:24.822Z,97622.84
2022-12-08T09:47:30.730Z,97628.69
2022-12-08T09:50:36.852Z,97631.34
2022-12-08T09:53:42.362Z,97634.78
2022-12-08T09:56:43.781Z,97634.97
2022-12-08T09:59:45.358Z,97634.25
2022-12-08T10:02:46.783Z,97640.19
2022-12-08T10:05:56.151Z,97645.34
2022-12-08T10:09:00.675Z,97648.91
2022-12-08T10:12:02.064Z,97651.56
2022-12-08T10:15:03.824Z,97656.75
2022-12-08T10:18:10.331Z,97660.16
2022-12-08T10:21:13.655Z,97657.59
2022-12-08T10:24:41.564Z,97668.56
2022-12-08T10:27:42.915Z,97668.84
2022-12-08T10:30:44.283Z,97662.94
2022-12-08T10:33:45.704Z,97670.69
2022-12-08T10:36:50.181Z,97681.09
2022-12-08T10:39:58.664Z,97688.88
2022-12-08T10:43:00.147Z,97706.09
2022-12-08T10:46:20.383Z,97711.19
2022-12-08T10:49:29.376Z,97722.38
2022-12-08T10:52:30.728Z,97726.69
2022-12-08T10:55:39.198Z,97735.38
2022-12-08T10:58:41.183Z,97731.03
2022-12-08T11:01:44.323Z,97738.75
2022-12-08T11:04:46.253Z,97743.13
2022-12-08T11:07:49.041Z,97741.47
2022-12-08T11:10:50.420Z,97742.38
2022-12-08T11:13:51.983Z,97744.09
2022-12-08T11:17:02.482Z,97737.28
2022-12-08T11:20:10.007Z,97737.34
2022-12-08T11:23:18.818Z,97748.63
2022-12-08T11:26:23.213Z,97746.91
2022-12-08T11:29:24.546Z,97749.50
2022-12-08T11:32:25.977Z,97754.63
2022-12-08T11:35:28.807Z,97749.59
2022-12-08T11:38:30.353Z,97741.81
2022-12-08T11:41:36.256Z,97741.81
2022-12-08T11:44:56.441Z,97739.16
2022-12-08T11:48:10.713Z,97744.25
2022-12-08T11:51:12.035Z,97739.28
2022-12-08T11:54:23.965Z,97739.06
2022-12-08T11:57:25.380Z,97742.63
2022-12-08T12:00:26.753Z,97740.84
2022-12-08T12:03:31.057Z,97727.19
2022-12-08T12:06:53.777Z,97730.53
2022-12-08T12:09:58.836Z,97725.38
2022-12-08T12:13:09.052Z,97721.25
2022-12-08T12:16:29.296Z,97720.44
2022-12-08T12:19:32.711Z,97722.09
2022-12-08T12:22:34.676Z,97706.50
2022-12-08T12:25:36.068Z,97715.91
2022-12-08T12:28:41.832Z,97715.94
2022-12-08T12:31:43.402Z,97712.38
2022-12-08T12:34:52.294Z,97714.88
2022-12-08T12:37:55.336Z,97713.84
2022-12-08T12:40:58.586Z,97703.72
2022-12-08T12:44:12.265Z,97701.16
2022-12-08T12:47:14.717Z,97699.41
2022-12-08T12:50:34.534Z,97699.44
2022-12-08T12:53:35.957Z,97698.56
2022-12-08T12:56:48.250Z,97703.81
2022-12-08T13:00:05.496Z,97698.69
2022-12-08T13:03:12.259Z,97701.25
2022-12-08T13:06:14.820Z,97696.84
2022-12-08T13:09:20.407Z,97703.81
2022-12-08T13:12:23.009Z,97698.56
2022-12-08T13:15:24.444Z,97690.88
2022-12-08T13:18:29.505Z,97685.56
2022-12-08T13:21:37.303Z,97698.53
2022-12-08T13:24:38.710Z,97688.31
2022-12-08T13:27:40.301Z,97697.47
2022-12-08T13:30:42.131Z,97688.16
2022-12-08T13:33:43.662Z,97687.22
2022-12-08T13:36:51.155Z,97693.84
2022-12-08T13:39:56.801Z,97690.47
2022-12-08T13:43:06.759Z,97678.47
2022-12-08T13:59:43.125Z,97685.25
2022-12-08T14:02:48.868Z,97674.91
2022-12-08T14:06:11.574Z,97679.25
2022-12-08T14:09:12.951Z,97683.56
2022-12-08T14:12:14.380Z,97678.41
2022-12-08T14:15:15.874Z,97669.81
2022-12-08T14:18:24.677Z,97666.44
2022-12-08T14:21:27.891Z,97672.41
2022-12-08T14:24:32.349Z,97671.47
2022-12-08T14:27:34.965Z,97668.94
2022-12-08T14:30:37.301Z,97672.22
2022-12-08T14:33:38.651Z,97673.13
2022-12-08T14:36:39.994Z,97666.31
2022-12-08T14:39:41.364Z,97672.16
2022-12-08T14:42:43.807Z,97672.22
2022-12-08T14:45:45.145Z,97655.91
2022-12-08T14:48:46.517Z,97654.13
2022-12-08T14:51:47.884Z,97662.66
2022-12-08T14:54:49.631Z,97652.28
2022-12-08T14:57:51.063Z,97651.44
2022-12-08T15:00:54.599Z,97647.97
2022-12-08T15:04:08.546Z,97641.09
2022-12-08T15:07:14.057Z,97635.16
2022-12-08T15:10:15.415Z,97635.97
2022-12-08T15:13:16.817Z,97632.47
2022-12-08T15:16:29.761Z,97632.41
2022-12-08T15:19:32.137Z,97629.78
2022-12-08T15:22:33.548Z,97624.69
2022-12-08T15:25:35.295Z,97620.25
2022-12-08T15:28:36.784Z,97614.25
2022-12-08T15:31:38.265Z,97619.34
2022-12-08T15:34:39.669Z,97616.69
2022-12-08T15:37:41.144Z,97615.84
2022-12-08T15:40:42.488Z,97618.47
2022-12-08T15:43:43.868Z,97608.06
2022-12-08T15:46:45.331Z,97602.94
2022-12-08T15:49:47.169Z,97593.34
2022-12-08T15:52:48.934Z,97588.28
2022-12-08T15:56:18.996Z,97579.63
2022-12-08T15:59:18.531Z,97571.84
2022-12-08T16:02:22.853Z,97565.81
2022-12-08T16:05:42.820Z,97551.22
2022-12-08T16:08:56.218Z,97554.56
2022-12-08T16:13:26.651Z,97544.22
2022-12-08T16:16:00.637Z,97538.19
2022-12-08T16:19:02.638Z,97533.91
2022-12-08T16:22:44.811Z,97525.28
2022-12-08T16:25:25.769Z,97538.94
2022-12-08T16:28:53.519Z,97533.75
2022-12-08T16:31:49.847Z,97527.59
2022-12-08T16:34:51.255Z,97526.72
2022-12-08T16:37:52.630Z,97525.81
2022-12-08T16:41:12.887Z,97523.16
2022-12-08T16:44:14.257Z,97516.16
2022-12-08T16:47:15.672Z,97516.84
2022-12-08T16:50:18.122Z,97510.00
2022-12-08T16:53:19.623Z,97511.59
2022-12-08T16:56:21.118Z,97513.19
2022-12-08T16:59:22.515Z,97501.03
2022-12-08T17:02:24.399Z,97507.66
2022-12-08T17:05:26.046Z,97503.31
2022-12-08T17:08:27.601Z,97493.72
2022-12-08T17:11:36.028Z,97480.13
2022-12-08T17:14:40.702Z,97469.91
2022-12-08T17:17:42.100Z,97463.69
2022-12-08T17:20:43.448Z,97454.03
2022-12-08T17:23:44.867Z,97452.25
2022-12-08T17:26:46.317Z,97465.63
2022-12-08T17:29:47.716Z,97457.75
2022-12-08T17:32:49.167Z,97460.16
2022-12-08T17:35:51.029Z,97464.44
2022-12-08T17:38:52.385Z,97461.59
2022-12-08T17:41:56.938Z,97461.50
2022-12-08T17:44:58.379Z,97453.75
2022-12-08T17:47:59.780Z,97448.50
2022-12-08T17:51:01.241Z,97445.19
2022-12-08T17:54:02.625Z,97441.69
2022-12-08T17:57:04.059Z,97433.81
2022-12-08T18:00:07.784Z,97441.41
2022-12-08T18:03:09.352Z,97430.81
2022-12-08T18:06:11.275Z,97426.59
2022-12-08T18:09:12.656Z,97434.13
2022-12-08T18:12:16.955Z,97433.09
2022-12-08T18:15:20.677Z,97433.75
2022-12-08T18:18:22.836Z,97429.94
2022-12-08T18:21:24.291Z,97435.06
2022-12-08T18:24:25.756Z,97435.75
2022-12-08T18:27:27.138Z,97431.44
2022-12-08T18:30:28.569Z,97431.38
2022-12-08T18:33:29.983Z,97420.06
2022-12-08T18:36:31.393Z,97418.25
2022-12-08T18:39:32.862Z,97420.78
2022-12-08T18:42:34.340Z,97415.50
2022-12-08T18:45:38.703Z,97409.38
2022-12-08T18:48:41.438Z,97407.59
2022-12-08T18:51:42.967Z,97400.66
2022-12-08T18:55:05.146Z,97397.13
2022-12-08T18:58:05.859Z,97399.66
2022-12-08T19:01:07.342Z,97395.31
2022-12-08T19:04:27.919Z,97386.94
2022-12-08T19:07:30.026Z,97385.19
2022-12-08T19:10:32.195Z,97373.88
2022-12-08T19:13:33.674Z,97375.50
2022-12-08T19:16:35.144Z,97373.69
2022-12-08T19:19:36.766Z,97375.28
2022-12-08T19:22:38.154Z,97366.63
2022-12-08T19:25:39.705Z,97366.63
2022-12-08T19:28:41.349Z,97369.94
2022-12-08T19:31:42.899Z,97358.00
2022-12-08T19:34:44.410Z,97363.06
2022-12-08T19:37:45.799Z,97363.00
2022-12-08T19:41:06.090Z,97363.88
2022-12-08T19:44:32.954Z,97363.81
2022-12-08T19:47:34.477Z,97364.50
2022-12-08T19:50:40.268Z,97361.03
2022-12-08T19:53:47.364Z,97353.22
2022-12-08T19:56:49.289Z,97350.59
2022-12-08T19:59:56.170Z,97351.41
2022-12-08T20:02:57.974Z,97345.31
2022-12-08T20:05:59.471Z,97339.28
2022-12-08T20:09:00.943Z,97344.28
2022-12-08T20:12:02.394Z,97343.41
2022-12-08T20:15:03.883Z,97346.78
2022-12-08T20:18:05.397Z,97350.09
2022-12-08T20:21:06.891Z,97350.00
2022-12-08T20:24:08.300Z,97353.41
2022-12-08T20:27:09.690Z,97353.50
2022-12-08T20:30:16.758Z,97362.06
2022-12-08T20:33:18.840Z,97356.09
2022-12-08T20:36:20.482Z,97347.34
2022-12-08T20:39:21.981Z,97348.88
2022-12-08T20:42:24.093Z,97343.69
2022-12-08T20:45:25.534Z,97346.16
2022-12-08T20:48:27.008Z,97341.88
2022-12-08T20:51:31.884Z,97346.09
2022-12-08T20:54:33.786Z,97341.75
2022-12-08T20:57:35.269Z,97340.91
2022-12-08T21:00:37.581Z,97340.13
2022-12-08T21:03:39.140Z,97345.16
2022-12-08T21:06:40.908Z,97342.50
2022-12-08T21:09:42.628Z,97349.34
2022-12-08T21:12:44.296Z,97350.13
2022-12-08T21:15:46.585Z,97341.53
2022-12-08T21:18:48.661Z,97341.41
2022-12-08T21:21:50.941Z,97340.34
2022-12-08T21:24:52.418Z,97338.59
2022-12-08T21:27:53.859Z,97341.09
2022-12-08T21:30:55.391Z,97341.81
2022-12-08T21:33:57.322Z,97347.72
2022-12-08T21:36:58.778Z,97346.84
2022-12-08T21:40:00.373Z,97347.69
2022-12-08T21:43:02.116Z,97344.19
2022-12-08T21:46:03.689Z,97350.09
2022-12-08T21:49:05.155Z,97349.16
2022-12-08T21:52:06.642Z,97344.84
2022-12-08T21:55:08.324Z,97347.41
2022-12-08T21:58:09.755Z,97346.53
2022-12-08T22:01:11.401Z,97342.16
2022-12-08T22:04:14.940Z,97339.53
2022-12-08T22:07:16.640Z,97329.22
2022-12-08T22:10:18.792Z,97324.88
2022-12-08T22:13:20.278Z,97323.16
2022-12-08T22:16:21.893Z,97335.09
2022-12-08T22:19:24.798Z,97330.00
2022-12-08T22:22:26.516Z,97319.63
2022-12-08T22:25:28.091Z,97312.81
2022-12-08T22:28:31.064Z,97311.03
2022-12-08T22:31:32.932Z,97317.00
2022-12-08T22:34:34.574Z,97307.47
2022-12-08T22:37:36.269Z,97304.03
2022-12-08T22:40:39.816Z,97305.66
2022-12-08T22:43:41.490Z,97299.66
2022-12-08T22:46:43.153Z,97303.91
2022-12-08T22:49:44.868Z,97293.63
2022-12-08T22:52:46.533Z,97285.06
2022-12-08T22:55:48.028Z,97285.94
2022-12-08T22:58:49.893Z,97280.88
2022-12-08T23:01:51.492Z,97279.25
2022-12-08T23:04:56.017Z,97280.00
2022-12-08T23:07:57.623Z,97276.56
2022-12-08T23:10:59.027Z,97278.09
2022-12-08T23:14:00.598Z,97272.91
2022-12-08T23:17:02.143Z,97272.94
2022-12-08T23:20:04.209Z,97272.06
2022-12-08T23:23:05.896Z,97266.88
2022-12-08T23:26:20.792Z,97260.06
2022-12-08T23:29:22.290Z,97247.03
2022-12-08T23:32:23.776Z,97254.69
2022-12-08T23:35:25.436Z,97247.00
2022-12-08T23:38:26.831Z,97248.75
2022-12-08T23:41:28.500Z,97252.00
2022-12-08T23:44:30.056Z,97247.75
2022-12-08T23:47:31.657Z,97240.06
2022-12-08T23:50:33.408Z,97233.94
2022-12-08T23:53:34.905Z,97236.50
2022-12-08T23:56:36.317Z,97237.41
2022-12-08T23:59:37.769Z,97233.78
